Kansas City, MO

1:33 AM CDT on October 22, 2014 (GMT -0500)
Westheight | Change Station
CLOSE
Current Station
Personal Weather Station
Location: Kansas City, KS
Elevation: 893 ft
Nearby Weather Stations

Elev 893 ft 39.12 °N, 94.65 °W | Updated 2 minutes ago

Clear
Clear
57.7 °F
Feels Like 57.7 °F
N
0.0
Wind Variable Wind from East
Gusts 0.0 mph

Today
High -- | Low -- °F
--% Chance of Precip.
Yesterday
High -- | Low -- °F
Precip. -- in
7:35 AM 6:29 PM
Waning Crescent, 3% visible
Pressure 30.11 in
Visibility 10.0 miles
Clouds Clear
Dew Point 36 °F
Humidity 44%
Rainfall 0.00 in
Snow Depth Not available.
UV 0 out of 12
Pollen 2.30 out of 12
Ozone Good
PM2.5 Unhealthy for Sensitive Groups
Flu Activity No Activity
METAR KMKC 220554Z 11010KT 10SM CLR 15/07 A3011 RMK AO2 SLP194 T01500072 10194 20133 402440072 50003

More Conditions Fewer Conditions

Pressure 30.11 in
Visibility 10.0 miles
Clouds Clear
Dew Point 36 °F
Humidity 44%
Rainfall 0.00 in
Snow Depth Not available.
UV 0 out of 12
Pollen 2.30 out of 12
Ozone Good
PM2.5 Unhealthy for Sensitive Groups
Flu Activity No Activity
METAR KMKC 220554Z 11010KT 10SM CLR 15/07 A3011 RMK AO2 SLP194 T01500072 10194 20133 402440072 50003

More Conditions Fewer Conditions

10-Day Weather Forecast

Almanac

Astronomy

Oct. 22, 2014 Rise Set
Actual Time 7:35 AM CDT 6:29 PM CDT
Civil Twilight 7:08 AM CDT 6:57 PM CDT
Nautical Twilight 6:36 AM CDT 7:28 PM CDT
Astronomical Twilight 6:05 AM CDT 7:59 PM CDT
Moon 6:17 AM CDT 5:56 PM CDT
Length of Visible Light 11h 49m
Length of Day
10h 54m
Tomorrow will be 2m 23s shorter.
Waning Crescent, 3% of the Moon is Illuminated
Today
Waning Crescent
Oct 23
New
Oct 30
First Quarter
Nov 6
Full
Nov 14
Last Quarter

Today's Extremes

State Highs State Lows

Community

WunderPhotos

Upload Photos

1,763,884 photos uploaded!

Nearby

Air Quality

  Air Quality AQ Index Pollutant
Yesterday Moderate
PM2.5
Yesterday Good
OZONE
Current Unhealthy for Sensitive Groups
PM2.5
Current Good
OZONE
Wednesday Good
OZONE

Snow Depth

Station Depth Elevation
No new snow has been reported.

Earthquake Activity

City Distance Mag. Time & Date
No recent earthquake activity has been reported nearby.
Minimum magnitude displayed is 2.5.

Coastal Water Temperatures

Place Temperature
No Stations Reporting

Nearby Weather Stations